sensor_id;sensor_type;location;lat;lon;timestamp;pressure;altitude;pressure_sealevel;temperature;humidity
30967;BME280;17649;51.836;8.330;2022-11-14T00:00:20;101204.00;;;4.38;100.00
30967;BME280;17649;51.836;8.330;2022-11-14T00:03:21;101204.13;;;4.33;100.00
30967;BME280;17649;51.836;8.330;2022-11-14T00:06:21;101194.75;;;4.32;100.00
30967;BME280;17649;51.836;8.330;2022-11-14T00:09:23;101207.53;;;4.34;100.00
30967;BME280;17649;51.836;8.330;2022-11-14T00:12:24;101202.50;;;4.28;100.00
30967;BME280;17649;51.836;8.330;2022-11-14T00:15:24;101192.34;;;4.23;100.00
30967;BME280;17649;51.836;8.330;2022-11-14T00:18:24;101193.19;;;4.24;100.00
30967;BME280;17649;51.836;8.330;2022-11-14T00:21:25;101192.34;;;4.23;100.00
30967;BME280;17649;51.836;8.330;2022-11-14T00:24:28;101183.88;;;4.19;100.00
30967;BME280;17649;51.836;8.330;2022-11-14T00:27:28;101178.72;;;4.21;100.00
30967;BME280;17649;51.836;8.330;2022-11-14T00:30:29;101177.84;;;4.22;100.00
30967;BME280;17649;51.836;8.330;2022-11-14T00:33:29;101165.06;;;4.22;100.00
30967;BME280;17649;51.836;8.330;2022-11-14T00:36:29;101164.03;;;4.29;100.00
30967;BME280;17649;51.836;8.330;2022-11-14T00:39:29;101155.41;;;4.35;100.00
30967;BME280;17649;51.836;8.330;2022-11-14T00:42:30;101159.47;;;4.43;100.00
30967;BME280;17649;51.836;8.330;2022-11-14T00:45:30;101156.84;;;4.48;100.00
30967;BME280;17649;51.836;8.330;2022-11-14T00:48:30;101148.22;;;4.51;100.00
30967;BME280;17649;51.836;8.330;2022-11-14T00:51:30;101143.88;;;4.54;100.00
30967;BME280;17649;51.836;8.330;2022-11-14T00:54:31;101144.63;;;4.58;100.00
30967;BME280;17649;51.836;8.330;2022-11-14T00:57:31;101138.63;;;4.59;100.00
30967;BME280;17649;51.836;8.330;2022-11-14T01:00:31;101133.50;;;4.59;100.00
30967;BME280;17649;51.836;8.330;2022-11-14T01:03:31;101135.19;;;4.61;100.00
30967;BME280;17649;51.836;8.330;2022-11-14T01:06:32;101134.19;;;4.67;100.00
30967;BME280;17649;51.836;8.330;2022-11-14T01:09:32;101129.88;;;4.69;100.00
30967;BME280;17649;51.836;8.330;2022-11-14T01:12:32;101128.06;;;4.72;100.00
30967;BME280;17649;51.836;8.330;2022-11-14T01:15:33;101130.38;;;4.85;100.00
30967;BME280;17649;51.836;8.330;2022-11-14T01:18:33;101125.25;;;4.85;100.00
30967;BME280;17649;51.836;8.330;2022-11-14T01:21:33;101117.38;;;4.91;100.00
30967;BME280;17649;51.836;8.330;2022-11-14T01:24:34;101116.41;;;4.96;100.00
30967;BME280;17649;51.836;8.330;2022-11-14T01:27:34;101106.13;;;4.98;100.00
30967;BME280;17649;51.836;8.330;2022-11-14T01:30:35;101098.41;;;4.98;100.00
30967;BME280;17649;51.836;8.330;2022-11-14T01:33:35;101092.38;;;5.00;100.00
30967;BME280;17649;51.836;8.330;2022-11-14T01:36:35;101093.34;;;4.96;100.00
30967;BME280;17649;51.836;8.330;2022-11-14T01:39:35;101084.91;;;4.91;100.00
30967;BME280;17649;51.836;8.330;2022-11-14T01:42:36;101077.31;;;4.87;100.00
30967;BME280;17649;51.836;8.330;2022-11-14T01:48:56;101067.25;;;4.79;100.00
30967;BME280;17649;51.836;8.330;2022-11-14T01:52:00;101060.50;;;4.75;100.00
30967;BME280;17649;51.836;8.330;2022-11-14T01:55:04;101060.50;;;4.75;100.00
30967;BME280;17649;51.836;8.330;2022-11-14T01:58:05;101050.41;;;4.69;100.00
30967;BME280;17649;51.836;8.330;2022-11-14T02:01:05;101046.31;;;4.62;100.00
30967;BME280;17649;51.836;8.330;2022-11-14T02:04:05;101043.81;;;4.59;100.00
30967;BME280;17649;51.836;8.330;2022-11-14T02:07:06;101043.03;;;4.55;100.00
30967;BME280;17649;51.836;8.330;2022-11-14T02:10:08;101042.28;;;4.52;100.00
30967;BME280;17649;51.836;8.330;2022-11-14T02:13:08;101036.19;;;4.56;100.00
30967;BME280;17649;51.836;8.330;2022-11-14T02:16:08;101026.97;;;4.48;100.00
30967;BME280;17649;51.836;8.330;2022-11-14T02:19:09;101020.22;;;4.44;100.00
30967;BME280;17649;51.836;8.330;2022-11-14T02:22:09;101017.69;;;4.43;100.00
30967;BME280;17649;51.836;8.330;2022-11-14T02:25:09;101024.69;;;4.36;100.00
30967;BME280;17649;51.836;8.330;2022-11-14T02:28:12;101023.09;;;4.31;100.00
30967;BME280;17649;51.836;8.330;2022-11-14T02:31:12;101017.09;;;4.33;100.00
30967;BME280;17649;51.836;8.330;2022-11-14T02:34:12;101011.22;;;4.28;100.00
30967;BME280;17649;51.836;8.330;2022-11-14T02:37:15;101016.28;;;4.30;100.00
30967;BME280;17649;51.836;8.330;2022-11-14T02:40:15;101013.75;;;4.28;100.00
30967;BME280;17649;51.836;8.330;2022-11-14T02:43:16;101014.66;;;4.27;100.00
30967;BME280;17649;51.836;8.330;2022-11-14T02:46:16;101003.53;;;4.28;100.00
30967;BME280;17649;51.836;8.330;2022-11-14T02:49:16;101008.72;;;4.25;100.00
30967;BME280;17649;51.836;8.330;2022-11-14T02:52:16;101001.84;;;4.27;100.00
30967;BME280;17649;51.836;8.330;2022-11-14T02:55:17;101003.63;;;4.24;100.00
30967;BME280;17649;51.836;8.330;2022-11-14T02:58:17;101006.97;;;4.27;100.00
30967;BME280;17649;51.836;8.330;2022-11-14T03:01:17;101003.41;;;4.34;100.00
30967;BME280;17649;51.836;8.330;2022-11-14T03:04:17;101005.84;;;4.39;100.00
30967;BME280;17649;51.836;8.330;2022-11-14T03:07:18;100997.31;;;4.38;100.00
30967;BME280;17649;51.836;8.330;2022-11-14T03:10:18;100991.31;;;4.39;100.00
30967;BME280;17649;51.836;8.330;2022-11-14T03:13:18;100990.44;;;4.40;100.00
30967;BME280;17649;51.836;8.330;2022-11-14T03:16:18;100994.66;;;4.41;100.00
30967;BME280;17649;51.836;8.330;2022-11-14T03:19:18;100986.09;;;4.42;100.00
30967;BME280;17649;51.836;8.330;2022-11-14T03:22:19;100987.78;;;4.43;100.00
30967;BME280;17649;51.836;8.330;2022-11-14T03:25:19;100974.94;;;4.45;100.00
30967;BME280;17649;51.836;8.330;2022-11-14T03:28:19;100979.94;;;4.51;100.00
30967;BME280;17649;51.836;8.330;2022-11-14T03:31:19;100974.06;;;4.46;100.00
30967;BME280;17649;51.836;8.330;2022-11-14T03:34:19;100976.59;;;4.47;100.00
30967;BME280;17649;51.836;8.330;2022-11-14T03:37:20;100973.34;;;4.41;100.00
30967;BME280;17649;51.836;8.330;2022-11-14T03:40:20;100977.63;;;4.40;100.00
30967;BME280;17649;51.836;8.330;2022-11-14T03:43:20;100986.09;;;4.42;100.00
30967;BME280;17649;51.836;8.330;2022-11-14T03:46:20;100983.47;;;4.47;100.00
30967;BME280;17649;51.836;8.330;2022-11-14T03:49:20;100978.41;;;4.42;100.00
30967;BME280;17649;51.836;8.330;2022-11-14T03:52:21;100975.09;;;4.39;100.00
30967;BME280;17649;51.836;8.330;2022-11-14T03:55:21;100974.34;;;4.35;100.00
30967;BME280;17649;51.836;8.330;2022-11-14T03:58:21;100972.78;;;4.28;100.00
30967;BME280;17649;51.836;8.330;2022-11-14T04:01:21;100977.97;;;4.25;100.00
30967;BME280;17649;51.836;8.330;2022-11-14T04:04:21;100966.94;;;4.23;100.00
30967;BME280;17649;51.836;8.330;2022-11-14T04:07:22;100968.50;;;4.29;100.00
30967;BME280;17649;51.836;8.330;2022-11-14T04:10:22;100961.66;;;4.29;100.00
30967;BME280;17649;51.836;8.330;2022-11-14T04:13:22;100957.31;;;4.31;100.00
30967;BME280;17649;51.836;8.330;2022-11-14T04:16:22;100947.09;;;4.31;100.00
30967;BME280;17649;51.836;8.330;2022-11-14T04:19:22;100959.88;;;4.31;100.00
30967;BME280;17649;51.836;8.330;2022-11-14T04:22:23;100947.91;;;4.33;100.00
30967;BME280;17649;51.836;8.330;2022-11-14T04:25:23;100949.63;;;4.33;100.00
30967;BME280;17649;51.836;8.330;2022-11-14T04:28:23;100948.63;;;4.38;100.00
30967;BME280;17649;51.836;8.330;2022-11-14T04:31:23;100941.91;;;4.34;100.00
30967;BME280;17649;51.836;8.330;2022-11-14T04:34:23;100948.56;;;4.41;100.00
30967;BME280;17649;51.836;8.330;2022-11-14T04:37:24;100933.19;;;4.41;100.00
30967;BME280;17649;51.836;8.330;2022-11-14T04:40:24;100934.84;;;4.42;100.00
30967;BME280;17649;51.836;8.330;2022-11-14T04:43:24;100924.66;;;4.41;100.00
30967;BME280;17649;51.836;8.330;2022-11-14T04:46:24;100922.16;;;4.38;100.00
30967;BME280;17649;51.836;8.330;2022-11-14T04:49:24;100931.66;;;4.34;100.00
30967;BME280;17649;51.836;8.330;2022-11-14T04:52:25;100923.22;;;4.29;100.00
30967;BME280;17649;51.836;8.330;2022-11-14T04:55:25;100923.31;;;4.26;100.00
30967;BME280;17649;51.836;8.330;2022-11-14T04:58:25;100919.19;;;4.21;100.00
30967;BME280;17649;51.836;8.330;2022-11-14T05:01:25;100915.84;;;4.17;100.00
30967;BME280;17649;51.836;8.330;2022-11-14T05:15:20;100918.13;;;4.28;100.00
30967;BME280;17649;51.836;8.330;2022-11-14T05:18:39;100911.38;;;4.25;100.00
30967;BME280;17649;51.836;8.330;2022-11-14T05:22:01;100920.09;;;4.18;100.00
30967;BME280;17649;51.836;8.330;2022-11-14T05:25:19;100926.03;;;4.20;100.00
30967;BME280;17649;51.836;8.330;2022-11-14T05:28:26;100924.38;;;4.17;100.00
30967;BME280;17649;51.836;8.330;2022-11-14T05:38:42;100910.88;;;4.11;100.00
30967;BME280;17649;51.836;8.330;2022-11-14T05:42:01;100915.16;;;4.10;100.00
30967;BME280;17649;51.836;8.330;2022-11-14T05:45:08;100916.88;;;4.10;100.00
30967;BME280;17649;51.836;8.330;2022-11-14T05:48:08;100914.09;;;4.19;100.00
30967;BME280;17649;51.836;8.330;2022-11-14T05:51:28;100908.97;;;4.19;100.00
30967;BME280;17649;51.836;8.330;2022-11-14T06:05:21;100917.53;;;4.18;100.00
30967;BME280;17649;51.836;8.330;2022-11-14T06:11:48;100911.28;;;4.28;100.00
30967;BME280;17649;51.836;8.330;2022-11-14T06:18:26;100903.91;;;4.17;100.00
30967;BME280;17649;51.836;8.330;2022-11-14T06:25:15;100908.22;;;4.14;100.00
30967;BME280;17649;51.836;8.330;2022-11-14T06:28:37;100918.50;;;4.12;100.00
30967;BME280;17649;51.836;8.330;2022-11-14T06:35:19;100908.38;;;4.08;100.00
30967;BME280;17649;51.836;8.330;2022-11-14T06:38:22;100913.50;;;4.08;100.00
30967;BME280;17649;51.836;8.330;2022-11-14T06:41:22;100914.38;;;4.07;100.00
30967;BME280;17649;51.836;8.330;2022-11-14T06:44:25;100911.94;;;4.01;100.00
30967;BME280;17649;51.836;8.330;2022-11-14T06:47:34;100922.19;;;4.02;100.00
30967;BME280;17649;51.836;8.330;2022-11-14T06:50:37;100911.72;;;4.11;100.00
30967;BME280;17649;51.836;8.330;2022-11-14T06:53:48;100906.63;;;4.10;100.00
30967;BME280;17649;51.836;8.330;2022-11-14T06:56:48;100907.31;;;4.16;100.00
30967;BME280;17649;51.836;8.330;2022-11-14T06:59:49;100907.44;;;4.12;100.00
30967;BME280;17649;51.836;8.330;2022-11-14T07:02:55;100904.91;;;4.10;100.00
30967;BME280;17649;51.836;8.330;2022-11-14T07:09:42;100916.88;;;4.10;100.00
30967;BME280;17649;51.836;8.330;2022-11-14T07:12:48;100906.63;;;4.10;100.00
30967;BME280;17649;51.836;8.330;2022-11-14T07:15:52;100900.59;;;4.12;100.00
30967;BME280;17649;51.836;8.330;2022-11-14T07:19:20;100909.94;;;4.13;100.00
30967;BME280;17649;51.836;8.330;2022-11-14T07:22:40;100903.06;;;4.17;100.00
30967;BME280;17649;51.836;8.330;2022-11-14T07:25:41;100905.63;;;4.17;100.00
30967;BME280;17649;51.836;8.330;2022-11-14T07:28:41;100901.28;;;4.19;100.00
30967;BME280;17649;51.836;8.330;2022-11-14T07:31:42;100901.13;;;4.25;100.00
30967;BME280;17649;51.836;8.330;2022-11-14T07:34:42;100902.72;;;4.29;100.00
30967;BME280;17649;51.836;8.330;2022-11-14T07:37:42;100891.59;;;4.32;100.00
30967;BME280;17649;51.836;8.330;2022-11-14T07:40:51;100886.94;;;4.46;100.00
30967;BME280;17649;51.836;8.330;2022-11-14T07:43:51;100891.00;;;4.55;100.00
30967;BME280;17649;51.836;8.330;2022-11-14T07:46:51;100887.22;;;4.68;100.00
30967;BME280;17649;51.836;8.330;2022-11-14T07:49:51;100878.53;;;4.73;100.00
30967;BME280;17649;51.836;8.330;2022-11-14T07:52:52;100879.03;;;4.86;100.00
30967;BME280;17649;51.836;8.330;2022-11-14T07:55:53;100875.31;;;4.98;100.00
30967;BME280;17649;51.836;8.330;2022-11-14T07:58:53;100881.59;;;5.17;100.00
30967;BME280;17649;51.836;8.330;2022-11-14T08:01:53;100874.63;;;5.22;100.00
30967;BME280;17649;51.836;8.330;2022-11-14T08:04:53;100875.81;;;5.40;100.00
30967;BME280;17649;51.836;8.330;2022-11-14T08:07:53;100873.94;;;5.45;100.00
30967;BME280;17649;51.836;8.330;2022-11-14T08:10:57;100875.34;;;5.55;100.00
30967;BME280;17649;51.836;8.330;2022-11-14T08:13:58;100873.09;;;5.73;100.00
30967;BME280;17649;51.836;8.330;2022-11-14T08:16:58;100864.31;;;5.80;100.00
30967;BME280;17649;51.836;8.330;2022-11-14T08:19:58;100859.00;;;5.86;100.00
30967;BME280;17649;51.836;8.330;2022-11-14T08:23:02;100861.38;;;5.92;100.00
30967;BME280;17649;51.836;8.330;2022-11-14T08:26:03;100858.63;;;5.98;100.00
30967;BME280;17649;51.836;8.330;2022-11-14T08:29:03;100849.00;;;6.05;100.00
30967;BME280;17649;51.836;8.330;2022-11-14T08:32:03;100865.06;;;6.11;100.00
30967;BME280;17649;51.836;8.330;2022-11-14T08:35:04;100863.16;;;6.16;100.00
30967;BME280;17649;51.836;8.330;2022-11-14T08:38:05;100868.94;;;6.23;100.00
30967;BME280;17649;51.836;8.330;2022-11-14T08:41:06;100858.56;;;6.26;100.00
30967;BME280;17649;51.836;8.330;2022-11-14T08:44:09;100866.97;;;6.31;100.00
30967;BME280;17649;51.836;8.330;2022-11-14T08:47:09;100871.03;;;6.37;100.00
30967;BME280;17649;51.836;8.330;2022-11-14T08:50:10;100869.97;;;6.44;100.00
30967;BME280;17649;51.836;8.330;2022-11-14T08:53:11;100862.91;;;6.49;100.00
30967;BME280;17649;51.836;8.330;2022-11-14T08:56:12;100868.06;;;6.49;100.00
30967;BME280;17649;51.836;8.330;2022-11-14T08:59:13;100865.06;;;6.61;100.00
30967;BME280;17649;51.836;8.330;2022-11-14T09:02:14;100860.28;;;6.75;100.00
30967;BME280;17649;51.836;8.330;2022-11-14T09:05:15;100862.75;;;6.78;100.00
30967;BME280;17649;51.836;8.330;2022-11-14T09:08:15;100858.91;;;6.90;100.00
30967;BME280;17649;51.836;8.330;2022-11-14T09:11:17;100866.25;;;7.01;100.00
30967;BME280;17649;51.836;8.330;2022-11-14T09:14:17;100862.66;;;7.05;100.00
30967;BME280;17649;51.836;8.330;2022-11-14T09:17:18;100866.47;;;7.18;100.00
30967;BME280;17649;51.836;8.330;2022-11-14T09:20:20;100860.06;;;7.28;100.00
30967;BME280;17649;51.836;8.330;2022-11-14T09:23:21;100853.84;;;7.34;100.00
30967;BME280;17649;51.836;8.330;2022-11-14T09:26:22;100857.16;;;7.37;100.00
30967;BME280;17649;51.836;8.330;2022-11-14T09:29:22;100852.50;;;7.47;100.00
30967;BME280;17649;51.836;8.330;2022-11-14T09:32:23;100840.16;;;7.55;100.00
30967;BME280;17649;51.836;8.330;2022-11-14T09:35:23;100837.03;;;7.69;100.00
30967;BME280;17649;51.836;8.330;2022-11-14T09:38:24;100820.53;;;7.73;100.00
30967;BME280;17649;51.836;8.330;2022-11-14T09:47:31;100812.47;;;8.02;100.00
30967;BME280;17649;51.836;8.330;2022-11-14T09:50:33;100807.22;;;8.05;100.00
30967;BME280;17649;51.836;8.330;2022-11-14T09:53:39;100818.41;;;8.25;100.00
30967;BME280;17649;51.836;8.330;2022-11-14T09:56:41;100826.25;;;8.44;100.00
30967;BME280;17649;51.836;8.330;2022-11-14T09:59:41;100814.69;;;8.52;100.00
30967;BME280;17649;51.836;8.330;2022-11-14T10:09:09;100811.00;;;8.78;100.00
30967;BME280;17649;51.836;8.330;2022-11-14T10:13:20;100806.09;;;8.91;100.00
30967;BME280;17649;51.836;8.330;2022-11-14T10:32:04;100800.97;;;10.83;100.00
30967;BME280;17649;51.836;8.330;2022-11-14T10:35:19;100797.78;;;11.56;100.00
30967;BME280;17649;51.836;8.330;2022-11-14T10:38:28;100791.38;;;12.66;100.00
30967;BME280;17649;51.836;8.330;2022-11-14T10:41:31;100766.00;;;13.12;100.00
30967;BME280;17649;51.836;8.330;2022-11-14T10:44:33;100781.06;;;13.61;100.00
30967;BME280;17649;51.836;8.330;2022-11-14T10:47:37;100773.66;;;14.08;100.00
30967;BME280;17649;51.836;8.330;2022-11-14T10:50:45;100782.81;;;14.77;100.00
30967;BME280;17649;51.836;8.330;2022-11-14T10:53:53;100770.66;;;15.01;100.00
30967;BME280;17649;51.836;8.330;2022-11-14T10:56:54;100746.22;;;15.98;100.00
30967;BME280;17649;51.836;8.330;2022-11-14T10:59:55;100749.72;;;15.50;100.00
30967;BME280;17649;51.836;8.330;2022-11-14T11:03:04;100747.41;;;16.50;100.00
30967;BME280;17649;51.836;8.330;2022-11-14T11:06:04;100754.09;;;16.76;100.00
30967;BME280;17649;51.836;8.330;2022-11-14T11:09:11;100743.56;;;15.51;100.00
30967;BME280;17649;51.836;8.330;2022-11-14T11:16:04;100747.00;;;15.52;100.00
30967;BME280;17649;51.836;8.330;2022-11-14T11:22:24;100748.91;;;17.08;100.00
30967;BME280;17649;51.836;8.330;2022-11-14T11:25:26;100755.72;;;16.99;100.00
30967;BME280;17649;51.836;8.330;2022-11-14T11:28:26;100763.06;;;16.94;100.00
30967;BME280;17649;51.836;8.330;2022-11-14T11:31:47;100759.38;;;17.40;100.00
30967;BME280;17649;51.836;8.330;2022-11-14T11:34:48;100761.22;;;16.74;100.00
30967;BME280;17649;51.836;8.330;2022-11-14T11:40:57;100735.50;;;15.78;100.00
30967;BME280;17649;51.836;8.330;2022-11-14T11:44:09;100737.47;;;16.55;100.00
30967;BME280;17649;51.836;8.330;2022-11-14T11:47:12;100726.75;;;17.55;100.00
30967;BME280;17649;51.836;8.330;2022-11-14T11:50:18;100715.06;;;18.22;92.51
30967;BME280;17649;51.836;8.330;2022-11-14T11:53:38;100726.03;;;18.87;89.97
30967;BME280;17649;51.836;8.330;2022-11-14T11:56:43;100711.72;;;19.29;93.95
30967;BME280;17649;51.836;8.330;2022-11-14T11:59:50;100706.16;;;19.90;75.68
30967;BME280;17649;51.836;8.330;2022-11-14T12:02:54;100703.97;;;20.23;74.35
30967;BME280;17649;51.836;8.330;2022-11-14T12:28:38;100688.94;;;19.49;78.86
30967;BME280;17649;51.836;8.330;2022-11-14T12:31:45;100693.47;;;18.80;92.27
30967;BME280;17649;51.836;8.330;2022-11-14T12:34:46;100692.03;;;18.26;95.57
30967;BME280;17649;51.836;8.330;2022-11-14T12:37:47;100685.34;;;18.33;100.00
30967;BME280;17649;51.836;8.330;2022-11-14T12:40:59;100677.34;;;18.34;100.00
30967;BME280;17649;51.836;8.330;2022-11-14T12:54:42;100673.16;;;17.50;100.00
30967;BME280;17649;51.836;8.330;2022-11-14T12:57:45;100669.84;;;17.69;100.00
30967;BME280;17649;51.836;8.330;2022-11-14T13:07:14;100659.06;;;16.66;100.00
30967;BME280;17649;51.836;8.330;2022-11-14T13:10:28;100656.78;;;15.14;100.00
30967;BME280;17649;51.836;8.330;2022-11-14T13:13:29;100654.41;;;14.14;100.00
30967;BME280;17649;51.836;8.330;2022-11-14T13:16:48;100654.16;;;13.41;100.00
30967;BME280;17649;51.836;8.330;2022-11-14T13:26:50;100642.47;;;12.67;100.00
30967;BME280;17649;51.836;8.330;2022-11-14T13:29:51;100643.81;;;12.46;100.00
30967;BME280;17649;51.836;8.330;2022-11-14T13:32:52;100645.91;;;11.98;100.00
30967;BME280;17649;51.836;8.330;2022-11-14T13:35:53;100646.53;;;11.87;100.00
30967;BME280;17649;51.836;8.330;2022-11-14T13:38:58;100639.78;;;11.85;100.00
30967;BME280;17649;51.836;8.330;2022-11-14T13:51:54;100626.75;;;11.56;100.00
30967;BME280;17649;51.836;8.330;2022-11-14T13:54:54;100626.81;;;11.99;100.00
30967;BME280;17649;51.836;8.330;2022-11-14T13:57:58;100614.94;;;12.38;100.00
30967;BME280;17649;51.836;8.330;2022-11-14T14:01:17;100600.00;;;12.41;100.00
30967;BME280;17649;51.836;8.330;2022-11-14T14:07:32;100601.50;;;12.31;100.00
30967;BME280;17649;51.836;8.330;2022-11-14T14:16:57;100598.59;;;11.94;100.00
30967;BME280;17649;51.836;8.330;2022-11-14T14:32:23;100595.84;;;11.53;100.00
30967;BME280;17649;51.836;8.330;2022-11-14T14:35:27;100601.25;;;11.20;100.00
30967;BME280;17649;51.836;8.330;2022-11-14T14:38:28;100608.38;;;11.17;100.00
30967;BME280;17649;51.836;8.330;2022-11-14T14:41:29;100609.53;;;11.11;100.00
30967;BME280;17649;51.836;8.330;2022-11-14T14:44:31;100606.06;;;10.96;100.00
30967;BME280;17649;51.836;8.330;2022-11-14T14:47:37;100608.94;;;10.92;100.00
30967;BME280;17649;51.836;8.330;2022-11-14T14:53:38;100613.28;;;10.91;100.00
30967;BME280;17649;51.836;8.330;2022-11-14T14:56:38;100612.25;;;10.94;100.00
30967;BME280;17649;51.836;8.330;2022-11-14T14:59:38;100624.88;;;10.84;100.00
30967;BME280;17649;51.836;8.330;2022-11-14T15:02:41;100624.66;;;10.73;100.00
30967;BME280;17649;51.836;8.330;2022-11-14T15:05:41;100618.06;;;10.67;100.00
30967;BME280;17649;51.836;8.330;2022-11-14T15:08:42;100621.81;;;10.62;100.00
30967;BME280;17649;51.836;8.330;2022-11-14T15:11:44;100609.56;;;10.50;100.00
30967;BME280;17649;51.836;8.330;2022-11-14T15:14:45;100607.31;;;10.28;100.00
30967;BME280;17649;51.836;8.330;2022-11-14T15:17:46;100601.81;;;10.34;100.00
30967;BME280;17649;51.836;8.330;2022-11-14T15:21:05;100592.94;;;10.22;100.00
30967;BME280;17649;51.836;8.330;2022-11-14T15:24:18;100601.75;;;10.18;100.00
30967;BME280;17649;51.836;8.330;2022-11-14T15:27:19;100596.25;;;10.08;100.00
30967;BME280;17649;51.836;8.330;2022-11-14T15:30:26;100604.06;;;10.07;100.00
30967;BME280;17649;51.836;8.330;2022-11-14T15:33:28;100589.22;;;10.10;100.00
30967;BME280;17649;51.836;8.330;2022-11-14T15:36:28;100595.66;;;10.03;100.00
30967;BME280;17649;51.836;8.330;2022-11-14T15:39:29;100596.41;;;10.05;100.00
30967;BME280;17649;51.836;8.330;2022-11-14T15:42:29;100594.25;;;9.98;100.00
30967;BME280;17649;51.836;8.330;2022-11-14T15:45:39;100589.72;;;9.85;100.00
30967;BME280;17649;51.836;8.330;2022-11-14T15:48:39;100585.34;;;9.70;100.00
30967;BME280;17649;51.836;8.330;2022-11-14T15:54:52;100592.00;;;9.41;100.00
30967;BME280;17649;51.836;8.330;2022-11-14T15:57:52;100587.81;;;9.21;100.00
30967;BME280;17649;51.836;8.330;2022-11-14T16:00:52;100583.56;;;9.03;100.00
30967;BME280;17649;51.836;8.330;2022-11-14T16:03:53;100571.25;;;8.91;100.00
30967;BME280;17649;51.836;8.330;2022-11-14T16:06:53;100583.47;;;8.87;100.00
30967;BME280;17649;51.836;8.330;2022-11-14T16:09:54;100574.38;;;8.80;100.00
30967;BME280;17649;51.836;8.330;2022-11-14T16:12:54;100567.75;;;8.75;100.00
30967;BME280;17649;51.836;8.330;2022-11-14T16:15:54;100573.81;;;8.74;100.00
30967;BME280;17649;51.836;8.330;2022-11-14T16:18:54;100569.41;;;8.76;100.00
30967;BME280;17649;51.836;8.330;2022-11-14T16:21:59;100561.31;;;8.83;100.00
30967;BME280;17649;51.836;8.330;2022-11-14T16:25:01;100567.47;;;8.98;100.00
30967;BME280;17649;51.836;8.330;2022-11-14T16:28:02;100557.59;;;9.06;100.00
30967;BME280;17649;51.836;8.330;2022-11-14T16:31:02;100561.47;;;9.15;100.00
30967;BME280;17649;51.836;8.330;2022-11-14T16:34:02;100566.28;;;9.22;100.00
30967;BME280;17649;51.836;8.330;2022-11-14T16:37:02;100560.63;;;9.32;100.00
30967;BME280;17649;51.836;8.330;2022-11-14T16:40:02;100552.59;;;9.38;100.00
30967;BME280;17649;51.836;8.330;2022-11-14T16:43:03;100561.75;;;9.43;100.00
30967;BME280;17649;51.836;8.330;2022-11-14T16:46:04;100555.59;;;9.46;100.00
30967;BME280;17649;51.836;8.330;2022-11-14T16:49:04;100545.44;;;9.43;100.00
30967;BME280;17649;51.836;8.330;2022-11-14T16:52:04;100546.19;;;9.45;100.00
30967;BME280;17649;51.836;8.330;2022-11-14T16:55:08;100534.09;;;9.45;100.00
30967;BME280;17649;51.836;8.330;2022-11-14T16:58:09;100533.28;;;9.45;100.00
30967;BME280;17649;51.836;8.330;2022-11-14T17:01:12;100526.44;;;9.44;100.00
30967;BME280;17649;51.836;8.330;2022-11-14T17:04:13;100532.19;;;9.49;100.00
30967;BME280;17649;51.836;8.330;2022-11-14T17:07:13;100537.44;;;9.47;100.00
30967;BME280;17649;51.836;8.330;2022-11-14T17:10:14;100538.94;;;9.51;100.00
30967;BME280;17649;51.836;8.330;2022-11-14T17:13:20;100528.59;;;9.51;100.00
30967;BME280;17649;51.836;8.330;2022-11-14T17:16:24;100526.28;;;9.47;100.00
30967;BME280;17649;51.836;8.330;2022-11-14T17:19:28;100533.03;;;9.49;100.00
30967;BME280;17649;51.836;8.330;2022-11-14T17:22:36;100525.88;;;9.54;100.00
30967;BME280;17649;51.836;8.330;2022-11-14T17:25:37;100531.97;;;9.53;100.00
30967;BME280;17649;51.836;8.330;2022-11-14T17:28:38;100521.22;;;9.61;100.00
30967;BME280;17649;51.836;8.330;2022-11-14T17:31:45;100521.22;;;9.61;100.00
30967;BME280;17649;51.836;8.330;2022-11-14T17:34:45;100533.22;;;9.62;100.00
30967;BME280;17649;51.836;8.330;2022-11-14T17:37:46;100528.66;;;9.67;100.00
30967;BME280;17649;51.836;8.330;2022-11-14T17:41:01;100525.59;;;9.76;100.00
30967;BME280;17649;51.836;8.330;2022-11-14T17:44:08;100511.53;;;9.82;100.00
30967;BME280;17649;51.836;8.330;2022-11-14T17:47:16;100505.91;;;9.90;100.00
30967;BME280;17649;51.836;8.330;2022-11-14T17:50:19;100490.16;;;9.94;100.00
30967;BME280;17649;51.836;8.330;2022-11-14T17:53:19;100500.28;;;9.99;100.00
30967;BME280;17649;51.836;8.330;2022-11-14T17:56:21;100496.03;;;9.98;100.00
30967;BME280;17649;51.836;8.330;2022-11-14T17:59:28;100485.06;;;9.93;100.00
30967;BME280;17649;51.836;8.330;2022-11-14T18:02:35;100490.41;;;9.90;100.00
30967;BME280;17649;51.836;8.330;2022-11-14T18:05:44;100482.84;;;9.86;100.00
30967;BME280;17649;51.836;8.330;2022-11-14T18:08:45;100478.59;;;9.85;100.00
30967;BME280;17649;51.836;8.330;2022-11-14T18:11:45;100481.91;;;9.88;100.00
30967;BME280;17649;51.836;8.330;2022-11-14T18:14:46;100484.16;;;9.94;100.00
30967;BME280;17649;51.836;8.330;2022-11-14T18:17:47;100480.66;;;9.95;100.00
30967;BME280;17649;51.836;8.330;2022-11-14T18:20:47;100481.25;;;10.00;100.00
30967;BME280;17649;51.836;8.330;2022-11-14T18:24:08;100474.25;;;10.02;100.00
30967;BME280;17649;51.836;8.330;2022-11-14T18:27:10;100471.31;;;10.08;100.00
30967;BME280;17649;51.836;8.330;2022-11-14T18:30:11;100474.63;;;10.10;100.00
30967;BME280;17649;51.836;8.330;2022-11-14T18:33:11;100473.72;;;10.11;100.00
30967;BME280;17649;51.836;8.330;2022-11-14T18:36:12;100465.81;;;10.14;100.00
30967;BME280;17649;51.836;8.330;2022-11-14T18:39:12;100470.72;;;10.19;100.00
30967;BME280;17649;51.836;8.330;2022-11-14T18:42:12;100469.81;;;10.20;100.00
30967;BME280;17649;51.836;8.330;2022-11-14T18:45:12;100468.06;;;10.20;100.00